createdAt,value
2018-08-10T00:00:34.842Z,20.06
2018-08-10T00:01:35.317Z,19.98
2018-08-10T00:02:35.793Z,19.92
2018-08-10T00:03:36.270Z,19.86
2018-08-10T00:04:36.745Z,19.77
2018-08-10T00:05:37.219Z,19.69
2018-08-10T00:06:37.697Z,19.61
2018-08-10T00:07:38.171Z,19.53
2018-08-10T00:08:38.649Z,19.45
2018-08-10T00:09:39.121Z,19.37
2018-08-10T00:10:39.596Z,19.28
2018-08-10T00:11:40.081Z,19.19
2018-08-10T00:12:40.548Z,19.09
2018-08-10T00:13:41.020Z,19.00
2018-08-10T00:14:41.496Z,18.92
2018-08-10T00:15:42.022Z,18.81
2018-08-10T00:16:42.447Z,18.72
2018-08-10T00:17:42.920Z,18.64
2018-08-10T00:18:43.395Z,18.55
2018-08-10T00:19:43.869Z,18.47
2018-08-10T00:20:44.344Z,18.39
2018-08-10T00:21:44.818Z,18.31
2018-08-10T00:22:45.302Z,18.21
2018-08-10T00:23:45.783Z,18.12
2018-08-10T00:24:46.240Z,18.03
2018-08-10T00:25:46.713Z,17.96
2018-08-10T00:26:47.187Z,17.90
2018-08-10T00:27:47.662Z,17.85
2018-08-10T00:28:48.137Z,17.81
2018-08-10T00:29:48.609Z,17.75
2018-08-10T00:30:49.080Z,17.68
2018-08-10T00:31:49.554Z,17.63
2018-08-10T00:32:50.029Z,17.57
2018-08-10T00:33:50.501Z,17.52
2018-08-10T00:34:50.971Z,17.48
2018-08-10T00:35:51.447Z,17.45
2018-08-10T00:36:51.919Z,17.42
2018-08-10T00:37:52.391Z,17.38
2018-08-10T00:38:52.864Z,17.35
2018-08-10T00:39:53.340Z,17.32
2018-08-10T00:40:53.812Z,17.28
2018-08-10T00:41:54.279Z,17.24
2018-08-10T00:42:54.753Z,17.19
2018-08-10T00:43:55.225Z,17.15
2018-08-10T00:44:55.699Z,17.11
2018-08-10T00:45:56.171Z,17.08
2018-08-10T00:46:56.642Z,17.05
2018-08-10T00:47:57.114Z,17.03
2018-08-10T00:48:57.586Z,17.01
2018-08-10T00:49:58.056Z,16.97
2018-08-10T00:50:58.529Z,16.94
2018-08-10T00:51:59.004Z,16.92
2018-08-10T00:52:59.472Z,16.89
2018-08-10T00:53:59.942Z,16.87
2018-08-10T00:55:00.418Z,16.84
2018-08-10T00:56:00.885Z,16.82
2018-08-10T00:57:01.365Z,16.80
2018-08-10T00:58:01.831Z,16.79
2018-08-10T00:59:02.301Z,16.80
2018-08-10T01:00:02.772Z,16.82
2018-08-10T01:01:03.242Z,16.85
2018-08-10T01:02:03.712Z,16.90
2018-08-10T01:03:04.186Z,16.98
2018-08-10T01:04:04.659Z,17.09
2018-08-10T01:05:05.129Z,17.21
2018-08-10T01:06:05.598Z,17.31
2018-08-10T01:07:06.070Z,17.41
2018-08-10T01:08:06.544Z,17.54
2018-08-10T01:09:07.013Z,17.68
2018-08-10T01:10:07.484Z,17.84
2018-08-10T01:11:07.956Z,18.00
2018-08-10T01:12:08.429Z,18.18
2018-08-10T01:13:08.978Z,18.34
2018-08-10T01:14:09.380Z,18.50
2018-08-10T01:15:09.846Z,18.65
2018-08-10T01:16:10.319Z,18.78
2018-08-10T01:17:10.790Z,18.94
2018-08-10T01:18:11.264Z,19.08
2018-08-10T01:19:11.811Z,19.22
2018-08-10T01:20:12.212Z,19.37
2018-08-10T01:21:12.684Z,19.49
2018-08-10T01:22:13.159Z,19.61
2018-08-10T01:23:13.634Z,19.71
2018-08-10T01:24:14.107Z,19.79
2018-08-10T01:25:14.582Z,19.82
2018-08-10T01:26:15.058Z,19.84
2018-08-10T01:27:15.531Z,19.85
2018-08-10T01:28:16.051Z,19.84
2018-08-10T01:29:16.481Z,19.82
2018-08-10T01:30:16.956Z,19.79
2018-08-10T01:31:17.431Z,19.76
2018-08-10T01:32:17.905Z,19.71
2018-08-10T01:33:18.383Z,19.65
2018-08-10T01:34:18.856Z,19.57
2018-08-10T01:35:19.339Z,19.51
2018-08-10T01:36:19.807Z,19.42
2018-08-10T01:37:20.285Z,19.33
2018-08-10T01:38:20.758Z,19.23
2018-08-10T01:39:21.232Z,19.14
2018-08-10T01:40:21.708Z,19.06
2018-08-10T01:41:22.184Z,18.97
2018-08-10T01:42:22.658Z,18.88
2018-08-10T01:43:23.133Z,18.79
2018-08-10T01:44:23.608Z,18.71
2018-08-10T01:45:24.085Z,18.62
2018-08-10T01:46:24.558Z,18.55
2018-08-10T01:47:25.033Z,18.47
2018-08-10T01:48:25.509Z,18.40
2018-08-10T01:49:25.982Z,18.32
2018-08-10T01:50:26.459Z,18.25
2018-08-10T01:51:26.931Z,18.17
2018-08-10T01:52:27.406Z,18.09
2018-08-10T01:53:28.080Z,18.02
2018-08-10T01:54:28.350Z,17.94
2018-08-10T01:55:28.823Z,17.87
2018-08-10T01:56:29.299Z,17.80
2018-08-10T01:57:29.772Z,17.73
2018-08-10T01:58:30.246Z,17.67
2018-08-10T01:59:30.716Z,17.60
2018-08-10T02:00:31.193Z,17.54
2018-08-10T02:01:31.664Z,17.47
2018-08-10T02:02:32.139Z,17.42
2018-08-10T02:03:32.613Z,17.35
2018-08-10T02:04:33.082Z,17.30
2018-08-10T02:05:33.761Z,17.24
2018-08-10T02:06:34.029Z,17.18
2018-08-10T02:07:34.502Z,17.13
2018-08-10T02:08:34.977Z,17.08
2018-08-10T02:09:35.448Z,17.03
2018-08-10T02:10:35.919Z,16.97
2018-08-10T02:11:36.390Z,16.92
2018-08-10T02:12:36.867Z,16.87
2018-08-10T02:13:37.340Z,16.83
2018-08-10T02:14:37.809Z,16.79
2018-08-10T02:15:38.277Z,16.75
2018-08-10T02:16:38.750Z,16.71
2018-08-10T02:17:39.224Z,16.67
2018-08-10T02:18:39.696Z,16.63
2018-08-10T02:19:40.170Z,16.59
2018-08-10T02:20:40.635Z,16.54
2018-08-10T02:21:41.109Z,16.51
2018-08-10T02:22:41.578Z,16.49
2018-08-10T02:23:42.054Z,16.46
2018-08-10T02:24:42.577Z,16.46
2018-08-10T02:25:42.997Z,16.46
2018-08-10T02:26:43.463Z,16.47
2018-08-10T02:27:43.933Z,16.52
2018-08-10T02:28:44.405Z,16.58
2018-08-10T02:29:44.882Z,16.66
2018-08-10T02:30:45.351Z,16.77
2018-08-10T02:31:45.818Z,16.90
2018-08-10T02:32:46.297Z,17.01
2018-08-10T02:33:46.965Z,17.13
2018-08-10T02:34:47.233Z,17.27
2018-08-10T02:35:47.704Z,17.41
2018-08-10T02:36:48.187Z,17.55
2018-08-10T02:37:48.646Z,17.72
2018-08-10T02:38:49.118Z,17.88
2018-08-10T02:39:49.592Z,18.04
2018-08-10T02:40:50.064Z,18.20
2018-08-10T02:41:50.536Z,18.36
2018-08-10T02:42:51.010Z,18.50
2018-08-10T02:43:51.480Z,18.64
2018-08-10T02:44:51.957Z,18.78
2018-08-10T02:45:52.426Z,18.93
2018-08-10T02:46:52.950Z,19.06
2018-08-10T02:47:53.375Z,19.19
2018-08-10T02:48:53.853Z,19.31
2018-08-10T02:49:54.323Z,19.43
2018-08-10T02:50:54.797Z,19.51
2018-08-10T02:51:55.279Z,19.54
2018-08-10T02:52:55.744Z,19.55
2018-08-10T02:53:56.219Z,19.57
2018-08-10T02:54:56.693Z,19.56
2018-08-10T02:55:57.168Z,19.53
2018-08-10T02:56:57.643Z,19.50
2018-08-10T02:57:58.121Z,19.46
2018-08-10T02:58:58.594Z,19.41
2018-08-10T02:59:59.068Z,19.35
2018-08-10T03:00:59.546Z,19.27
2018-08-10T03:02:00.020Z,19.18
2018-08-10T03:03:00.493Z,19.10
2018-08-10T03:04:00.973Z,19.02
2018-08-10T03:05:01.457Z,18.93
2018-08-10T03:06:01.932Z,18.83
2018-08-10T03:07:02.395Z,18.72
2018-08-10T03:08:02.871Z,18.63
2018-08-10T03:09:03.345Z,18.54
2018-08-10T03:10:03.825Z,18.43
2018-08-10T03:11:04.297Z,18.32
2018-08-10T03:12:04.767Z,18.20
2018-08-10T03:13:05.243Z,18.11
2018-08-10T03:14:05.717Z,18.01
2018-08-10T03:15:06.193Z,17.92
2018-08-10T03:16:06.667Z,17.82
2018-08-10T03:17:07.141Z,17.72
2018-08-10T03:18:07.615Z,17.62
2018-08-10T03:19:08.089Z,17.53
2018-08-10T03:20:08.562Z,17.44
2018-08-10T03:21:09.035Z,17.36
2018-08-10T03:22:09.574Z,17.28
2018-08-10T03:23:09.985Z,17.21
2018-08-10T03:24:10.454Z,17.15
2018-08-10T03:25:10.931Z,17.09
2018-08-10T03:26:11.403Z,17.03
2018-08-10T03:27:11.927Z,16.97
2018-08-10T03:28:12.347Z,16.91
2018-08-10T03:29:12.821Z,16.83
2018-08-10T03:30:13.308Z,16.77
2018-08-10T03:31:13.764Z,16.70
2018-08-10T03:32:14.238Z,16.64
2018-08-10T03:33:14.710Z,16.57
2018-08-10T03:34:15.182Z,16.51
2018-08-10T03:35:15.653Z,16.45
2018-08-10T03:36:16.127Z,16.39
2018-08-10T03:37:16.598Z,16.33
2018-08-10T03:38:17.069Z,16.27
2018-08-10T03:39:17.540Z,16.21
2018-08-10T03:40:18.012Z,16.16
2018-08-10T03:41:18.484Z,16.11
2018-08-10T03:42:18.957Z,16.08
2018-08-10T03:43:19.428Z,16.05
2018-08-10T03:44:19.899Z,16.05
2018-08-10T03:45:20.369Z,16.04
2018-08-10T03:46:20.841Z,16.06
2018-08-10T03:47:21.311Z,16.09
2018-08-10T03:48:21.784Z,16.14
2018-08-10T03:49:22.258Z,16.22
2018-08-10T03:50:22.730Z,16.31
2018-08-10T03:51:23.196Z,16.41
2018-08-10T03:52:23.667Z,16.52
2018-08-10T03:53:24.138Z,16.64
2018-08-10T03:54:24.609Z,16.75
2018-08-10T03:55:25.081Z,16.89
2018-08-10T03:56:25.556Z,17.05
2018-08-10T03:57:26.027Z,17.18
2018-08-10T03:58:26.496Z,17.33
2018-08-10T03:59:26.967Z,17.47
2018-08-10T04:00:27.441Z,17.61
2018-08-10T04:01:27.912Z,17.75
2018-08-10T04:02:28.384Z,17.87
2018-08-10T04:03:28.858Z,18.02
2018-08-10T04:04:29.327Z,18.15
2018-08-10T04:05:29.800Z,18.27
2018-08-10T04:06:30.273Z,18.38
2018-08-10T04:07:30.746Z,18.51
2018-08-10T04:08:31.220Z,18.63
2018-08-10T04:09:31.695Z,18.75
2018-08-10T04:10:32.167Z,18.88
2018-08-10T04:11:32.641Z,18.98
2018-08-10T04:12:33.114Z,19.06
2018-08-10T04:13:33.589Z,19.09
2018-08-10T04:14:34.065Z,19.11
2018-08-10T04:15:34.537Z,19.12
2018-08-10T04:16:35.012Z,19.12
2018-08-10T04:17:35.489Z,19.08
2018-08-10T04:18:35.964Z,19.05
2018-08-10T04:19:36.439Z,19.00
2018-08-10T04:20:36.913Z,18.93
2018-08-10T04:21:37.389Z,18.86
2018-08-10T04:22:37.865Z,18.76
2018-08-10T04:23:38.341Z,18.67
2018-08-10T04:24:38.815Z,18.60
2018-08-10T04:25:39.288Z,18.50
2018-08-10T04:26:39.765Z,18.39
2018-08-10T04:27:40.240Z,18.29
2018-08-10T04:28:40.714Z,18.19
2018-08-10T04:29:41.254Z,18.09
2018-08-10T04:30:41.663Z,17.99
2018-08-10T04:31:42.137Z,17.87
2018-08-10T04:32:42.610Z,17.76
2018-08-10T04:34:43.562Z,17.55
2018-08-10T04:35:44.037Z,17.44
2018-08-10T04:36:44.510Z,17.35
2018-08-10T04:37:44.984Z,17.26
2018-08-10T04:38:45.456Z,17.16
2018-08-10T04:39:45.939Z,17.06
2018-08-10T04:40:46.403Z,16.97
2018-08-10T04:41:46.876Z,16.88
2018-08-10T04:42:47.350Z,16.79
2018-08-10T04:43:47.822Z,16.70
2018-08-10T04:44:48.297Z,16.60
2018-08-10T04:45:48.771Z,16.52
2018-08-10T04:46:49.244Z,16.44
2018-08-10T04:47:49.714Z,16.36
2018-08-10T04:48:50.186Z,16.28
2018-08-10T04:50:51.132Z,16.14
2018-08-10T04:51:51.603Z,16.07
2018-08-10T04:52:52.076Z,16.00
2018-08-10T04:53:52.549Z,15.94
2018-08-10T04:54:53.024Z,15.87
2018-08-10T04:55:53.492Z,15.81
2018-08-10T04:56:53.963Z,15.76
2018-08-10T04:57:54.434Z,15.72
2018-08-10T04:58:54.905Z,15.67
2018-08-10T04:59:55.381Z,15.65
2018-08-10T05:00:55.849Z,15.64
2018-08-10T05:01:56.318Z,15.65
2018-08-10T05:02:56.791Z,15.68
2018-08-10T05:03:57.262Z,15.75
2018-08-10T05:04:57.733Z,15.82
2018-08-10T05:05:58.214Z,15.91
2018-08-10T05:06:58.675Z,16.02
2018-08-10T05:07:59.147Z,16.11
2018-08-10T05:08:59.616Z,16.22
2018-08-10T05:10:00.133Z,16.36
2018-08-10T05:11:00.562Z,16.51
2018-08-10T05:12:01.032Z,16.63
2018-08-10T05:13:01.502Z,16.80
2018-08-10T05:14:01.975Z,16.96
2018-08-10T05:15:02.446Z,17.11
2018-08-10T05:16:02.919Z,17.26
2018-08-10T05:17:03.392Z,17.42
2018-08-10T05:18:03.861Z,17.57
2018-08-10T05:19:04.335Z,17.72
2018-08-10T05:20:04.807Z,17.86
2018-08-10T05:21:05.279Z,18.01
2018-08-10T05:22:05.753Z,18.12
2018-08-10T05:23:06.225Z,18.24
2018-08-10T05:24:06.698Z,18.34
2018-08-10T05:25:07.171Z,18.43
2018-08-10T05:26:07.644Z,18.53
2018-08-10T05:27:08.120Z,18.62
2018-08-10T05:28:08.593Z,18.68
2018-08-10T05:29:09.069Z,18.72
2018-08-10T05:30:09.541Z,18.73
2018-08-10T05:31:10.018Z,18.74
2018-08-10T05:32:10.490Z,18.71
2018-08-10T05:33:10.964Z,18.68
2018-08-10T05:34:11.440Z,18.65
2018-08-10T05:35:11.915Z,18.59
2018-08-10T05:36:12.389Z,18.52
2018-08-10T05:37:12.865Z,18.43
2018-08-10T05:38:13.340Z,18.36
2018-08-10T05:39:13.817Z,18.26
2018-08-10T05:40:14.292Z,18.16
2018-08-10T05:41:14.764Z,18.06
2018-08-10T05:42:15.238Z,17.96
2018-08-10T05:43:15.717Z,17.85
2018-08-10T05:44:16.188Z,17.73
2018-08-10T05:45:16.683Z,17.62
2018-08-10T05:46:17.151Z,17.50
2018-08-10T05:47:17.637Z,17.39
2018-08-10T05:48:18.086Z,17.27
2018-08-10T05:49:18.561Z,17.15
2018-08-10T05:50:19.040Z,17.04
2018-08-10T05:51:19.509Z,16.93
2018-08-10T05:52:19.982Z,16.83
2018-08-10T05:53:20.457Z,16.73
2018-08-10T05:54:20.934Z,16.64
2018-08-10T05:55:21.405Z,16.54
2018-08-10T05:56:21.874Z,16.45
2018-08-10T05:57:22.376Z,16.36
2018-08-10T05:58:22.824Z,16.28
2018-08-10T05:59:23.299Z,16.18
2018-08-10T06:00:23.767Z,16.10
2018-08-10T06:01:24.284Z,16.02
2018-08-10T06:02:24.712Z,15.95
2018-08-10T06:03:25.328Z,15.87
2018-08-10T06:04:25.660Z,15.80
2018-08-10T06:05:26.130Z,15.74
2018-08-10T06:06:26.602Z,15.66
2018-08-10T06:07:27.074Z,15.60
2018-08-10T06:08:27.547Z,15.53
2018-08-10T06:09:28.221Z,15.47
2018-08-10T06:10:28.490Z,15.42
2018-08-10T06:11:28.961Z,15.38
2018-08-10T06:12:29.430Z,15.35
2018-08-10T06:13:29.902Z,15.35
2018-08-10T06:14:30.376Z,15.38
2018-08-10T06:15:30.935Z,15.42
2018-08-10T06:16:31.316Z,15.48
2018-08-10T06:17:31.788Z,15.55
2018-08-10T06:18:32.258Z,15.65
2018-08-10T06:19:32.809Z,15.75
2018-08-10T06:20:33.200Z,15.85
2018-08-10T06:21:33.676Z,15.94
2018-08-10T06:22:34.144Z,16.05
2018-08-10T06:23:34.615Z,16.18
2018-08-10T06:24:35.085Z,16.33
2018-08-10T06:25:35.557Z,16.47
2018-08-10T06:26:36.028Z,16.63
2018-08-10T06:27:36.548Z,16.77
2018-08-10T06:28:36.974Z,16.91
2018-08-10T06:29:37.445Z,17.07
2018-08-10T06:30:37.917Z,17.20
2018-08-10T06:31:38.390Z,17.32
2018-08-10T06:32:38.862Z,17.45
2018-08-10T06:33:39.360Z,17.57
2018-08-10T06:34:39.805Z,17.68
2018-08-10T06:35:40.280Z,17.80
2018-08-10T06:36:40.753Z,17.90
2018-08-10T06:37:41.226Z,18.02
2018-08-10T06:38:41.700Z,18.11
2018-08-10T06:39:42.180Z,18.20
2018-08-10T06:40:42.647Z,18.28
2018-08-10T06:41:43.122Z,18.36
2018-08-10T06:42:43.599Z,18.39
2018-08-10T06:43:44.068Z,18.41
2018-08-10T06:44:44.620Z,18.42
2018-08-10T06:45:45.017Z,18.39
2018-08-10T06:46:45.494Z,18.36
2018-08-10T06:47:45.968Z,18.31
2018-08-10T06:48:46.445Z,18.27
2018-08-10T06:49:46.917Z,18.20
2018-08-10T06:50:47.394Z,18.11
2018-08-10T06:51:47.870Z,18.04
2018-08-10T06:52:48.342Z,17.94
2018-08-10T06:53:48.817Z,17.83
2018-08-10T06:54:49.292Z,17.74
2018-08-10T06:55:49.877Z,17.64
2018-08-10T06:56:50.242Z,17.53
2018-08-10T06:57:50.716Z,17.41
2018-08-10T06:58:51.193Z,17.30
2018-08-10T06:59:51.671Z,17.18
2018-08-10T07:00:52.156Z,17.07
2018-08-10T07:01:52.612Z,16.94
2018-08-10T07:02:53.087Z,16.82
2018-08-10T07:03:53.561Z,16.71
2018-08-10T07:04:54.036Z,16.60
2018-08-10T07:05:54.506Z,16.49
2018-08-10T07:06:54.982Z,16.39
2018-08-10T07:07:55.492Z,16.30
2018-08-10T07:08:55.927Z,16.19
2018-08-10T07:09:56.400Z,16.10
2018-08-10T07:10:56.874Z,16.00
2018-08-10T07:11:57.350Z,15.92
2018-08-10T07:12:57.841Z,15.83
2018-08-10T07:13:58.292Z,15.74
2018-08-10T07:14:58.774Z,15.67
2018-08-10T07:15:59.237Z,15.58
2018-08-10T07:16:59.707Z,15.50
2018-08-10T07:18:00.180Z,15.42
2018-08-10T07:19:00.655Z,15.34
2018-08-10T07:20:01.126Z,15.28
2018-08-10T07:21:01.598Z,15.23
2018-08-10T07:22:02.067Z,15.18
2018-08-10T07:23:02.540Z,15.16
2018-08-10T07:24:03.009Z,15.16
2018-08-10T07:25:03.483Z,15.19
2018-08-10T07:26:03.951Z,15.24
2018-08-10T07:27:04.441Z,15.30
2018-08-10T07:28:04.895Z,15.39
2018-08-10T07:29:05.366Z,15.50
2018-08-10T07:30:05.841Z,15.60
2018-08-10T07:31:06.308Z,15.71
2018-08-10T07:32:06.781Z,15.84
2018-08-10T07:33:07.251Z,15.99
2018-08-10T07:34:07.724Z,16.13
2018-08-10T07:35:08.196Z,16.29
2018-08-10T07:36:08.663Z,16.43
2018-08-10T07:37:09.137Z,16.58
2018-08-10T07:38:09.609Z,16.73
2018-08-10T07:39:10.079Z,16.87
2018-08-10T07:40:10.553Z,17.02
2018-08-10T07:42:11.496Z,17.28
2018-08-10T07:43:11.971Z,17.39
2018-08-10T07:44:12.440Z,17.53
2018-08-10T07:45:12.913Z,17.65
2018-08-10T07:46:13.386Z,17.78
2018-08-10T07:47:13.862Z,17.87
2018-08-10T07:48:14.333Z,17.99
2018-08-10T07:49:14.806Z,18.10
2018-08-10T07:50:15.281Z,18.21
2018-08-10T07:51:15.754Z,18.30
2018-08-10T07:52:16.242Z,18.39
2018-08-10T07:53:16.701Z,18.45
2018-08-10T07:54:17.231Z,18.47
2018-08-10T07:55:17.651Z,18.49
2018-08-10T07:56:18.127Z,18.49
2018-08-10T07:58:19.076Z,18.44
2018-08-10T07:59:19.551Z,18.40
2018-08-10T08:00:20.025Z,18.36
2018-08-10T08:01:20.508Z,18.28
2018-08-10T08:02:20.977Z,18.21
2018-08-10T08:03:21.487Z,18.14
2018-08-10T08:04:21.927Z,18.06
2018-08-10T08:05:22.401Z,17.96
2018-08-10T08:06:22.877Z,17.87
2018-08-10T08:07:23.351Z,17.77
2018-08-10T08:08:23.826Z,17.67
2018-08-10T08:09:24.333Z,17.57
2018-08-10T08:10:24.783Z,17.47
2018-08-10T08:11:25.251Z,17.37
2018-08-10T08:12:25.726Z,17.27
2018-08-10T08:13:26.200Z,17.16
2018-08-10T08:14:26.673Z,17.05
2018-08-10T08:15:27.149Z,16.95
2018-08-10T08:16:27.621Z,16.84
2018-08-10T08:17:28.096Z,16.75
2018-08-10T08:18:28.568Z,16.64
2018-08-10T08:19:29.053Z,16.55
2018-08-10T08:20:29.518Z,16.46
2018-08-10T08:21:29.986Z,16.38
2018-08-10T08:22:30.462Z,16.30
2018-08-10T08:23:30.934Z,16.21
2018-08-10T08:24:31.408Z,16.12
2018-08-10T08:25:31.879Z,16.04
2018-08-10T08:26:32.353Z,15.95
2018-08-10T08:27:32.826Z,15.87
2018-08-10T08:28:33.298Z,15.79
2018-08-10T08:29:33.818Z,15.71
2018-08-10T08:30:34.241Z,15.64
2018-08-10T08:31:34.717Z,15.56
2018-08-10T08:32:35.186Z,15.50
2018-08-10T08:33:35.659Z,15.44
2018-08-10T08:34:36.169Z,15.40
2018-08-10T08:35:36.607Z,15.36
2018-08-10T08:36:37.071Z,15.34
2018-08-10T08:37:37.544Z,15.36
2018-08-10T08:38:38.013Z,15.39
2018-08-10T08:39:38.536Z,15.45
2018-08-10T08:40:38.957Z,15.51
2018-08-10T08:41:39.428Z,15.60
2018-08-10T08:42:39.900Z,15.70
2018-08-10T08:43:40.573Z,15.82
2018-08-10T08:44:40.848Z,15.93
2018-08-10T08:45:41.413Z,16.04
2018-08-10T08:46:41.785Z,16.16
2018-08-10T08:47:42.255Z,16.30
2018-08-10T08:48:42.726Z,16.45
2018-08-10T08:49:43.198Z,16.60
2018-08-10T08:50:43.670Z,16.77
2018-08-10T08:51:44.142Z,16.91
2018-08-10T08:52:44.614Z,17.05
2018-08-10T08:53:45.087Z,17.18
2018-08-10T08:54:45.557Z,17.32
2018-08-10T08:55:46.032Z,17.46
2018-08-10T08:56:46.503Z,17.59
2018-08-10T08:57:46.975Z,17.69
2018-08-10T08:58:47.449Z,17.80
2018-08-10T08:59:47.920Z,17.91
2018-08-10T09:00:48.399Z,18.02
2018-08-10T09:01:48.870Z,18.12
2018-08-10T09:02:49.342Z,18.21
2018-08-10T09:03:49.813Z,18.30
2018-08-10T09:04:50.288Z,18.41
2018-08-10T09:05:50.762Z,18.46
2018-08-10T09:06:51.236Z,18.51
2018-08-10T09:07:51.711Z,18.55
2018-08-10T09:08:52.188Z,18.56
2018-08-10T09:09:52.664Z,18.55
2018-08-10T09:10:53.135Z,18.53
2018-08-10T09:11:53.611Z,18.48
2018-08-10T09:12:54.086Z,18.44
2018-08-10T09:13:54.559Z,18.37
2018-08-10T09:14:55.034Z,18.30
2018-08-10T09:15:55.510Z,18.21
2018-08-10T09:16:55.989Z,18.13
2018-08-10T09:17:56.460Z,18.05
2018-08-10T09:18:56.935Z,17.95
2018-08-10T09:19:57.410Z,17.85
2018-08-10T09:20:57.884Z,17.75
2018-08-10T09:21:58.358Z,17.64
2018-08-10T09:22:58.833Z,17.54
2018-08-10T09:23:59.315Z,17.44
2018-08-10T09:24:59.784Z,17.34
2018-08-10T09:26:00.257Z,17.23
2018-08-10T09:27:00.805Z,17.12
2018-08-10T09:28:01.206Z,17.02
2018-08-10T09:29:01.683Z,16.92
2018-08-10T09:30:02.152Z,16.84
2018-08-10T09:31:02.638Z,16.76
2018-08-10T09:32:03.101Z,16.68
2018-08-10T09:33:03.574Z,16.60
2018-08-10T09:34:04.048Z,16.51
2018-08-10T09:35:04.521Z,16.43
2018-08-10T09:36:04.994Z,16.35
2018-08-10T09:37:05.466Z,16.27
2018-08-10T09:38:05.938Z,16.18
2018-08-10T09:39:06.413Z,16.11
2018-08-10T09:40:06.892Z,16.04
2018-08-10T09:41:07.361Z,15.98
2018-08-10T09:42:07.869Z,15.90
2018-08-10T09:43:08.302Z,15.85
2018-08-10T09:44:08.803Z,15.80
2018-08-10T09:45:09.279Z,15.75
2018-08-10T09:46:09.716Z,15.69
2018-08-10T09:47:10.188Z,15.64
2018-08-10T09:48:10.660Z,15.60
2018-08-10T09:49:11.132Z,15.58
2018-08-10T09:50:11.602Z,15.57
2018-08-10T09:51:12.081Z,15.60
2018-08-10T09:52:12.544Z,15.63
2018-08-10T09:53:13.018Z,15.69
2018-08-10T09:54:13.489Z,15.76
2018-08-10T09:55:13.961Z,15.86
2018-08-10T09:56:14.430Z,15.99
2018-08-10T09:57:14.901Z,16.09
2018-08-10T09:58:15.379Z,16.22
2018-08-10T09:59:15.847Z,16.36
2018-08-10T10:00:16.317Z,16.48
2018-08-10T10:01:16.787Z,16.64
2018-08-10T10:02:17.260Z,16.80
2018-08-10T10:03:17.733Z,16.95
2018-08-10T10:04:18.204Z,17.11
2018-08-10T10:05:18.673Z,17.27
2018-08-10T10:06:19.146Z,17.41
2018-08-10T10:07:20.906Z,17.56
2018-08-10T10:08:20.091Z,17.71
2018-08-10T10:09:20.564Z,17.85
2018-08-10T10:10:21.035Z,17.98
2018-08-10T10:11:21.508Z,18.12
2018-08-10T10:12:21.981Z,18.22
2018-08-10T10:13:22.456Z,18.34
2018-08-10T10:14:22.929Z,18.46
2018-08-10T10:15:23.405Z,18.59
2018-08-10T10:16:23.876Z,18.70
2018-08-10T10:17:24.356Z,18.80
2018-08-10T10:18:24.822Z,18.87
2018-08-10T10:19:25.299Z,18.92
2018-08-10T10:20:25.776Z,18.96
2018-08-10T10:21:26.251Z,18.96
2018-08-10T10:22:26.723Z,18.95
2018-08-10T10:23:27.197Z,18.93
2018-08-10T10:24:27.674Z,18.88
2018-08-10T10:25:28.149Z,18.84
2018-08-10T10:26:28.623Z,18.78
2018-08-10T10:27:29.102Z,18.72
2018-08-10T10:28:29.572Z,18.65
2018-08-10T10:29:30.050Z,18.57
2018-08-10T10:30:30.524Z,18.49
2018-08-10T10:31:30.999Z,18.41
2018-08-10T10:32:31.476Z,18.33
2018-08-10T10:33:31.951Z,18.26
2018-08-10T10:34:32.428Z,18.18
2018-08-10T10:35:32.900Z,18.10
2018-08-10T10:36:33.375Z,18.02
2018-08-10T10:37:33.849Z,17.92
2018-08-10T10:38:34.324Z,17.82
2018-08-10T10:39:34.798Z,17.72
2018-08-10T10:40:35.277Z,17.64
2018-08-10T10:41:35.880Z,17.55
2018-08-10T10:42:36.223Z,17.48
2018-08-10T10:43:36.697Z,17.43
2018-08-10T10:44:37.173Z,17.37
2018-08-10T10:45:37.644Z,17.31
2018-08-10T10:46:38.117Z,17.25
2018-08-10T10:47:38.591Z,17.18
2018-08-10T10:48:39.066Z,17.12
2018-08-10T10:49:39.540Z,17.06
2018-08-10T10:50:40.012Z,17.00
2018-08-10T10:51:40.487Z,16.95
2018-08-10T10:52:40.960Z,16.91
2018-08-10T10:53:41.432Z,16.86
2018-08-10T10:54:41.904Z,16.82
2018-08-10T10:55:42.386Z,16.78
2018-08-10T10:56:42.979Z,16.74
2018-08-10T10:57:43.324Z,16.69
2018-08-10T10:58:43.795Z,16.65
2018-08-10T10:59:44.267Z,16.61
2018-08-10T11:00:44.738Z,16.57
2018-08-10T11:01:45.212Z,16.53
2018-08-10T11:02:45.684Z,16.49
2018-08-10T11:03:46.158Z,16.45
2018-08-10T11:04:46.628Z,16.41
2018-08-10T11:05:47.099Z,16.38
2018-08-10T11:06:47.577Z,16.36
2018-08-10T11:07:48.046Z,16.35
2018-08-10T11:08:48.516Z,16.35
2018-08-10T11:09:48.988Z,16.37
2018-08-10T11:10:49.458Z,16.41
2018-08-10T11:11:49.928Z,16.47
2018-08-10T11:12:50.399Z,16.55
2018-08-10T11:13:50.874Z,16.65
2018-08-10T11:14:51.342Z,16.78
2018-08-10T11:15:51.814Z,16.92
2018-08-10T11:16:52.287Z,17.05
2018-08-10T11:17:52.759Z,17.17
2018-08-10T11:18:53.230Z,17.33
2018-08-10T11:19:53.703Z,17.48
2018-08-10T11:20:54.174Z,17.62
2018-08-10T11:21:54.646Z,17.79
2018-08-10T11:22:55.116Z,17.94
2018-08-10T11:23:55.602Z,18.11
2018-08-10T11:24:56.061Z,18.29
2018-08-10T11:25:56.548Z,18.44
2018-08-10T11:26:57.008Z,18.60
2018-08-10T11:27:57.481Z,18.75
2018-08-10T11:28:57.956Z,18.91
2018-08-10T11:29:58.428Z,19.06
2018-08-10T11:30:58.899Z,19.20
2018-08-10T11:31:59.400Z,19.35
2018-08-10T11:32:59.850Z,19.50
2018-08-10T11:34:00.324Z,19.62
2018-08-10T11:35:00.796Z,19.71
2018-08-10T11:36:01.273Z,19.79
2018-08-10T11:37:01.746Z,19.83
2018-08-10T11:38:02.223Z,19.85
2018-08-10T11:39:02.696Z,19.87
2018-08-10T11:40:03.172Z,19.86
2018-08-10T11:41:03.649Z,19.84
2018-08-10T11:42:04.124Z,19.81
2018-08-10T11:43:04.600Z,19.77
2018-08-10T11:44:05.075Z,19.73
2018-08-10T11:45:05.593Z,19.70
2018-08-10T11:46:06.027Z,19.64
2018-08-10T11:47:06.502Z,19.59
2018-08-10T11:48:06.980Z,19.54
2018-08-10T11:49:07.454Z,19.47
2018-08-10T11:50:08.003Z,19.40
2018-08-10T11:51:08.556Z,19.34
2018-08-10T11:52:08.881Z,19.28
2018-08-10T11:53:09.355Z,19.22
2018-08-10T11:54:09.831Z,19.15
2018-08-10T11:55:10.306Z,19.07
2018-08-10T11:56:10.783Z,18.99
2018-08-10T11:57:11.258Z,18.93
2018-08-10T11:58:11.733Z,18.86
2018-08-10T11:59:12.206Z,18.80
2018-08-10T12:00:12.682Z,18.75
2018-08-10T12:01:13.156Z,18.70
2018-08-10T12:02:13.633Z,18.65
2018-08-10T12:03:14.105Z,18.60
2018-08-10T12:04:14.582Z,18.54
2018-08-10T12:05:15.056Z,18.48
2018-08-10T12:06:15.621Z,18.43
2018-08-10T12:07:16.008Z,18.38
2018-08-10T12:08:16.479Z,18.32
2018-08-10T12:09:16.954Z,18.26
2018-08-10T12:10:17.425Z,18.20
2018-08-10T12:11:18.101Z,18.15
2018-08-10T12:12:18.372Z,18.11
2018-08-10T12:13:18.848Z,18.07
2018-08-10T12:14:19.324Z,18.04
2018-08-10T12:15:19.792Z,17.99
2018-08-10T12:16:20.267Z,17.95
2018-08-10T12:17:20.742Z,17.90
2018-08-10T12:18:21.215Z,17.87
2018-08-10T12:19:21.693Z,17.84
2018-08-10T12:20:22.160Z,17.81
2018-08-10T12:21:22.635Z,17.78
2018-08-10T12:22:23.107Z,17.75
2018-08-10T12:23:23.580Z,17.72
2018-08-10T12:24:24.052Z,17.70
2018-08-10T12:25:24.525Z,17.67
2018-08-10T12:26:24.998Z,17.64
2018-08-10T12:27:25.472Z,17.61
2018-08-10T12:28:25.943Z,17.58
2018-08-10T12:29:26.416Z,17.55
2018-08-10T12:30:26.886Z,17.53
2018-08-10T12:31:27.359Z,17.49
2018-08-10T12:32:27.834Z,17.45
2018-08-10T12:33:28.304Z,17.42
2018-08-10T12:34:28.776Z,17.40
2018-08-10T12:35:29.247Z,17.36
2018-08-10T12:36:29.720Z,17.34
2018-08-10T12:37:30.190Z,17.31
2018-08-10T12:38:30.663Z,17.28
2018-08-10T12:39:31.135Z,17.26
2018-08-10T12:40:31.606Z,17.24
2018-08-10T12:41:32.078Z,17.22
2018-08-10T12:42:32.550Z,17.20
2018-08-10T12:43:33.023Z,17.18
2018-08-10T12:44:33.491Z,17.18
2018-08-10T12:45:33.965Z,17.19
2018-08-10T12:46:34.489Z,17.21
2018-08-10T12:47:34.907Z,17.24
2018-08-10T12:48:35.378Z,17.30
2018-08-10T12:49:35.856Z,17.38
2018-08-10T12:50:36.340Z,17.47
2018-08-10T12:51:36.798Z,17.60
2018-08-10T12:52:37.264Z,17.72
2018-08-10T12:53:37.737Z,17.86
2018-08-10T12:54:38.209Z,18.01
2018-08-10T12:55:38.684Z,18.16
2018-08-10T12:56:39.153Z,18.32
2018-08-10T12:57:39.629Z,18.49
2018-08-10T12:58:40.097Z,18.65
2018-08-10T12:59:40.569Z,18.84
2018-08-10T13:00:41.043Z,19.01
2018-08-10T13:01:41.514Z,19.18
2018-08-10T13:02:42.003Z,19.33